Time;durP1;ratioP1;P1;durP2;ratioP2;P2;SDS_P1;SDS_P2;PMS_P1;PMS_P2;Temp;Humidity;BMP_temperature;BMP_pressure;BME280_temperature;BME280_humidity;BME280_pressure;Samples;Min_cycle;Max_cycle;Signal;HPM_P1;HPM_P2
2021/04/24 00:00:52;;;;;;;80.68;43.05;;;;;;;;;;5073158;28;20422;-64
2021/04/24 00:03:18;;;;;;;87.05;43.45;;;;;;;;;;5073987;28;20020;-65
2021/04/24 00:05:45;;;;;;;77.55;41.35;;;;;;;;;;5073710;28;20039;-65
2021/04/24 00:08:12;;;;;;;81.25;43.03;;;;;;;;;;5073367;28;20487;-65
2021/04/24 00:10:40;;;;;;;90.95;46.00;;;;;;;;;;5055705;28;20540;-66
2021/04/24 00:13:06;;;;;;;;;;;;;;;;;;5056007;28;20362;-64
2021/04/24 00:15:32;;;;;;;89.60;45.47;;;;;;;;;;5073600;28;19926;-63
2021/04/24 00:17:59;;;;;;;92.28;47.83;;;;;;;;;;5073296;28;20499;-65
2021/04/24 00:20:25;;;;;;;91.38;46.63;;;;;;;;;;5055276;28;20456;-65
2021/04/24 00:22:51;;;;;;;88.47;47.45;;;;;;;;;;5074298;28;20060;-64
2021/04/24 00:25:17;;;;;;;95.50;48.13;;;;;;;;;;5073483;28;20017;-65
2021/04/24 00:27:44;;;;;;;88.78;45.63;;;;;;;;;;5073413;28;20020;-66
2021/04/24 00:30:11;;;;;;;90.65;46.95;;;;;;;;;;5073486;28;20074;-62
2021/04/24 00:32:38;;;;;;;89.57;43.60;;;;;;;;;;5073103;28;20060;-64
2021/04/24 00:35:05;;;;;;;87.75;43.90;;;;;;;;;;5073089;28;20420;-63
2021/04/24 00:37:31;;;;;;;89.50;42.15;;;;;;;;;;5073389;28;20021;-63
2021/04/24 00:39:57;;;;;;;84.40;43.53;;;;;;;;;;5073094;28;20023;-64
2021/04/24 00:42:23;;;;;;;75.07;37.20;;;;;;;;;;5072724;28;20491;-65
2021/04/24 00:44:51;;;;;;;73.32;37.38;;;;;;;;;;5073218;28;20035;-65
2021/04/24 00:47:17;;;;;;;;;;;;;;;;;;5073710;28;20016;-62
2021/04/24 00:49:43;;;;;;;63.10;31.30;;;;;;;;;;5072980;28;20054;-68
2021/04/24 00:52:09;;;;;;;58.30;31.05;;;;;;;;;;5076395;28;20028;-65
2021/04/24 00:54:35;;;;;;;65.40;32.67;;;;;;;;;;5076717;28;20415;-64
2021/04/24 00:57:01;;;;;;;64.05;31.30;;;;;;;;;;5076648;28;20025;-63
2021/04/24 00:59:28;;;;;;;54.88;30.40;;;;;;;;;;5059559;28;20364;-64
2021/04/24 01:01:54;;;;;;;63.03;30.97;;;;;;;;;;5058681;28;20033;-64
2021/04/24 01:04:21;;;;;;;53.58;27.95;;;;;;;;;;5076239;28;20384;-64
2021/04/24 01:06:47;;;;;;;51.33;25.30;;;;;;;;;;5076544;28;20028;-63
2021/04/24 01:09:13;;;;;;;48.30;23.52;;;;;;;;;;5076762;28;20089;-65
2021/04/24 01:11:39;;;;;;;46.55;22.70;;;;;;;;;;5076306;28;20078;-64
2021/04/24 01:14:06;;;;;;;42.42;21.30;;;;;;;;;;5076679;28;20017;-63
2021/04/24 01:16:32;;;;;;;43.95;22.80;;;;;;;;;;5076070;28;20016;-62
2021/04/24 01:18:58;;;;;;;36.78;20.35;;;;;;;;;;5076280;28;20067;-64
2021/04/24 01:21:27;;;;;;;38.00;20.60;;;;;;;;;;5076445;28;20093;-64
2021/04/24 01:23:53;;;;;;;41.92;20.73;;;;;;;;;;5076184;28;20017;-63
2021/04/24 01:26:19;;;;;;;38.10;20.97;;;;;;;;;;5058526;28;20146;-62
2021/04/24 01:28:46;;;;;;;40.17;21.88;;;;;;;;;;5058455;28;20020;-64
2021/04/24 01:31:13;;;;;;;44.95;23.60;;;;;;;;;;5076265;28;20377;-63
2021/04/24 01:33:39;;;;;;;41.00;22.55;;;;;;;;;;5075979;28;20059;-63
2021/04/24 01:36:06;;;;;;;49.67;21.02;;;;;;;;;;5075977;28;20035;-64
2021/04/24 01:38:32;;;;;;;40.05;20.23;;;;;;;;;;5075670;28;20343;-63
2021/04/24 01:40:59;;;;;;;46.28;19.08;;;;;;;;;;5076215;28;20025;-63
2021/04/24 01:43:25;;;;;;;33.67;18.37;;;;;;;;;;5076718;28;20111;-62
2021/04/24 01:45:51;;;;;;;33.83;16.85;;;;;;;;;;5075549;28;20027;-64
2021/04/24 01:48:17;;;;;;;43.63;19.17;;;;;;;;;;5076287;28;20028;-63
2021/04/24 01:50:45;;;;;;;34.20;16.92;;;;;;;;;;5076606;28;20020;-65
2021/04/24 01:53:19;;;;;;;34.70;17.05;;;;;;;;;;5075335;28;20024;-63
2021/04/24 01:55:46;;;;;;;35.33;18.05;;;;;;;;;;5057942;28;20021;-64
2021/04/24 01:58:15;;;;;;;36.50;18.55;;;;;;;;;;5075878;28;20020;-63
2021/04/24 02:00:43;;;;;;;37.90;20.88;;;;;;;;;;5075616;28;20100;-65
2021/04/24 02:03:11;;;;;;;42.70;20.77;;;;;;;;;;5075766;28;20025;-66
2021/04/24 02:05:37;;;;;;;39.42;21.20;;;;;;;;;;5075099;28;20029;-63
2021/04/24 02:08:06;;;;;;;38.10;19.30;;;;;;;;;;5075416;28;20485;-62
2021/04/24 02:10:33;;;;;;;26.35;17.23;;;;;;;;;;5075623;28;20032;-64
2021/04/24 02:13:04;;;;;;;37.58;18.77;;;;;;;;;;5057210;28;20029;-63
2021/04/24 02:15:30;;;;;;;33.47;19.48;;;;;;;;;;5075568;28;20032;-66
2021/04/24 02:17:56;;;;;;;36.65;19.00;;;;;;;;;;5057459;28;20111;-66
2021/04/24 02:20:23;;;;;;;33.95;18.17;;;;;;;;;;5075276;28;20017;-65
2021/04/24 02:22:49;;;;;;;33.13;18.15;;;;;;;;;;5076124;28;20416;-64
2021/04/24 02:25:17;;;;;;;36.85;20.35;;;;;;;;;;5075363;28;20024;-64
2021/04/24 02:27:43;;;;;;;34.72;20.70;;;;;;;;;;5075108;28;20027;-65
2021/04/24 02:30:13;;;;;;;37.63;24.48;;;;;;;;;;5057238;28;20024;-66
2021/04/24 02:32:39;;;;;;;42.30;24.60;;;;;;;;;;5075403;28;20035;-66
2021/04/24 02:35:06;;;;;;;40.15;26.33;;;;;;;;;;5056574;28;20017;-65
2021/04/24 02:37:33;;;;;;;49.08;26.17;;;;;;;;;;5075379;28;20028;-63
2021/04/24 02:39:59;;;;;;;46.53;29.08;;;;;;;;;;5075021;28;20025;-64
2021/04/24 02:42:28;;;;;;;53.28;30.25;;;;;;;;;;5056768;28;20373;-66
2021/04/24 02:44:55;;;;;;;51.95;32.03;;;;;;;;;;5075179;28;20012;-63
2021/04/24 02:47:21;;;;;;;53.25;34.30;;;;;;;;;;5056926;28;20457;-63
2021/04/24 02:49:47;;;;;;;58.20;34.55;;;;;;;;;;5074304;28;20029;-64
2021/04/24 02:52:14;;;;;;;56.40;36.55;;;;;;;;;;5074516;28;20040;-64
2021/04/24 02:54:40;;;;;;;52.38;33.45;;;;;;;;;;5074368;28;20460;-65
2021/04/24 02:57:06;;;;;;;51.25;33.80;;;;;;;;;;5056779;28;20528;-66
2021/04/24 02:59:33;;;;;;;49.33;29.75;;;;;;;;;;5057012;28;20533;-65
2021/04/24 03:01:59;;;;;;;51.30;28.50;;;;;;;;;;5074359;28;20032;-65
2021/04/24 03:04:25;;;;;;;48.00;27.65;;;;;;;;;;5056613;28;20028;-66
2021/04/24 03:06:52;;;;;;;42.08;24.63;;;;;;;;;;5074553;28;20021;-64
2021/04/24 03:09:18;;;;;;;42.05;24.73;;;;;;;;;;5074157;28;20025;-64
2021/04/24 03:11:44;;;;;;;40.38;22.30;;;;;;;;;;5074379;28;20052;-65
2021/04/24 03:14:11;;;;;;;42.45;21.67;;;;;;;;;;5073594;28;20029;-65
2021/04/24 03:16:37;;;;;;;42.17;21.92;;;;;;;;;;5073782;28;20021;-66
2021/04/24 03:19:04;;;;;;;33.17;20.05;;;;;;;;;;5074272;28;20095;-66
2021/04/24 03:21:30;;;;;;;37.08;21.40;;;;;;;;;;5074389;28;20067;-63
2021/04/24 03:23:56;;;;;;;34.22;20.83;;;;;;;;;;5056014;28;20028;-65
2021/04/24 03:26:23;;;;;;;31.05;19.25;;;;;;;;;;5074206;28;20028;-64
2021/04/24 03:28:50;;;;;;;30.40;19.30;;;;;;;;;;5074447;28;20032;-64
2021/04/24 03:31:16;;;;;;;27.33;16.33;;;;;;;;;;5073877;28;20066;-64
2021/04/24 03:33:43;;;;;;;25.17;14.75;;;;;;;;;;5074069;28;20035;-64
2021/04/24 03:36:09;;;;;;;32.10;14.83;;;;;;;;;;5074084;28;20035;-64
2021/04/24 03:38:36;;;;;;;24.35;14.70;;;;;;;;;;5073992;28;20107;-63
2021/04/24 03:41:03;;;;;;;20.23;11.95;;;;;;;;;;5074009;28;20456;-63
2021/04/24 03:43:29;;;;;;;19.17;11.17;;;;;;;;;;5073676;28;20094;-64
2021/04/24 03:45:55;;;;;;;23.85;12.38;;;;;;;;;;5074206;28;20020;-65
2021/04/24 03:48:21;;;;;;;16.75;10.45;;;;;;;;;;5073921;28;20489;-65
2021/04/24 03:50:47;;;;;;;18.48;11.32;;;;;;;;;;5073811;28;20040;-64
2021/04/24 03:53:13;;;;;;;17.88;10.32;;;;;;;;;;5073968;28;20028;-63
2021/04/24 03:55:40;;;;;;;18.00;9.57;;;;;;;;;;5073610;28;20609;-63
2021/04/24 03:58:06;;;;;;;21.98;10.93;;;;;;;;;;5055497;28;20059;-64
2021/04/24 04:00:32;;;;;;;19.02;9.98;;;;;;;;;;5073770;28;20020;-62
2021/04/24 04:03:00;;;;;;;18.60;8.55;;;;;;;;;;5074064;28;20035;-64
2021/04/24 04:05:27;;;;;;;15.18;8.85;;;;;;;;;;5073623;28;20027;-64
2021/04/24 04:07:54;;;;;;;17.05;9.05;;;;;;;;;;5073390;28;20388;-63
2021/04/24 04:10:20;;;;;;;15.55;9.68;;;;;;;;;;5073704;28;20024;-66
2021/04/24 04:12:47;;;;;;;19.92;10.02;;;;;;;;;;5055255;28;20033;-63
2021/04/24 04:15:14;;;;;;;15.07;8.07;;;;;;;;;;5073879;28;20346;-64
2021/04/24 04:17:40;;;;;;;14.32;7.55;;;;;;;;;;5055627;28;20032;-66
2021/04/24 04:20:09;;;;;;;18.35;7.57;;;;;;;;;;5073320;28;20030;-67
2021/04/24 04:22:35;;;;;;;14.15;8.43;;;;;;;;;;5073811;28;20044;-64
2021/04/24 04:25:01;;;;;;;12.30;9.07;;;;;;;;;;5075142;28;20021;-65
2021/04/24 04:27:28;;;;;;;14.00;8.63;;;;;;;;;;5059296;28;20048;-64
2021/04/24 04:29:54;;;;;;;11.57;7.53;;;;;;;;;;5077535;28;20016;-64
2021/04/24 04:32:20;;;;;;;16.05;8.00;;;;;;;;;;5077434;28;20036;-65
2021/04/24 04:34:46;;;;;;;14.43;8.25;;;;;;;;;;5076937;28;20021;-64
2021/04/24 04:37:13;;;;;;;13.63;7.60;;;;;;;;;;5077397;28;20528;-64
2021/04/24 04:39:40;;;;;;;18.25;7.97;;;;;;;;;;5059105;28;20060;-67
2021/04/24 04:42:07;;;;;;;14.07;8.13;;;;;;;;;;5077052;28;20029;-64
2021/04/24 04:44:33;;;;;;;14.15;7.28;;;;;;;;;;5077844;28;20016;-64
2021/04/24 04:46:59;;;;;;;14.77;7.40;;;;;;;;;;5077126;28;20024;-65
2021/04/24 04:49:25;;;;;;;18.40;10.82;;;;;;;;;;5077162;28;20481;-63
2021/04/24 04:51:51;;;;;;;19.27;8.10;;;;;;;;;;5076759;28;20036;-69
2021/04/24 04:54:18;;;;;;;12.23;7.13;;;;;;;;;;5077029;28;20025;-67
2021/04/24 04:56:44;;;;;;;12.35;7.15;;;;;;;;;;5059090;28;20020;-64
2021/04/24 04:59:10;;;;;;;16.23;7.63;;;;;;;;;;5077464;28;20028;-67
2021/04/24 05:01:36;;;;;;;10.95;5.85;;;;;;;;;;5076485;28;20017;-62
2021/04/24 05:04:02;;;;;;;13.70;6.15;;;;;;;;;;5076918;28;20036;-66
2021/04/24 05:06:28;;;;;;;11.80;6.95;;;;;;;;;;5076907;28;20035;-67
2021/04/24 05:08:54;;;;;;;10.20;6.13;;;;;;;;;;5076468;28;20021;-69
2021/04/24 05:11:20;;;;;;;11.48;6.90;;;;;;;;;;5076740;28;20354;-69
2021/04/24 05:13:46;;;;;;;11.82;6.00;;;;;;;;;;5058703;28;20033;-68
2021/04/24 05:16:12;;;;;;;9.90;5.88;;;;;;;;;;5076106;28;20070;-64
2021/04/24 05:18:39;;;;;;;17.67;6.93;;;;;;;;;;5058778;28;20028;-72
2021/04/24 05:21:05;;;;;;;16.27;6.30;;;;;;;;;;5058662;28;20549;-73
2021/04/24 05:23:31;;;;;;;18.77;6.15;;;;;;;;;;5076251;28;20020;-68
2021/04/24 05:25:57;;;;;;;16.25;7.78;;;;;;;;;;5058519;28;20020;-67
2021/04/24 05:28:24;;;;;;;10.30;5.47;;;;;;;;;;5076138;28;20078;-68
2021/04/24 05:30:50;;;;;;;12.70;8.07;;;;;;;;;;5058476;28;20055;-68
2021/04/24 05:33:16;;;;;;;14.73;7.43;;;;;;;;;;5076005;28;20104;-69
2021/04/24 05:35:42;;;;;;;13.65;6.80;;;;;;;;;;5075662;28;20409;-69
2021/04/24 05:38:08;;;;;;;18.60;6.82;;;;;;;;;;5076008;28;20028;-68
2021/04/24 05:40:34;;;;;;;11.57;5.35;;;;;;;;;;5058338;28;20029;-68
2021/04/24 05:43:00;;;;;;;13.15;5.85;;;;;;;;;;5075608;28;20103;-69
2021/04/24 05:45:26;;;;;;;8.27;5.40;;;;;;;;;;5076690;28;20020;-68
2021/04/24 05:47:53;;;;;;;12.52;5.57;;;;;;;;;;5076112;28;20051;-68
2021/04/24 05:50:21;;;;;;;12.70;5.32;;;;;;;;;;5057464;28;20051;-70
2021/04/24 05:52:48;;;;;;;8.07;5.15;;;;;;;;;;5075988;28;20028;-68
2021/04/24 05:55:14;;;;;;;15.95;6.82;;;;;;;;;;5057977;28;20028;-66
2021/04/24 05:57:40;;;;;;;15.13;6.72;;;;;;;;;;5075330;28;20027;-70
2021/04/24 06:00:08;;;;;;;11.25;4.65;;;;;;;;;;5057939;28;20546;-69
2021/04/24 06:02:35;;;;;;;12.48;5.93;;;;;;;;;;5075837;28;20089;-66
2021/04/24 06:05:03;;;;;;;16.83;7.38;;;;;;;;;;5075367;28;20104;-65
2021/04/24 06:07:29;;;;;;;19.73;6.30;;;;;;;;;;5075345;28;20071;-66
2021/04/24 06:09:55;;;;;;;14.98;7.45;;;;;;;;;;5075606;28;20060;-71
2021/04/24 06:12:21;;;;;;;13.70;7.28;;;;;;;;;;5074959;28;20032;-68
2021/04/24 06:14:47;;;;;;;11.77;5.25;;;;;;;;;;5057562;28;20052;-70
2021/04/24 06:17:14;;;;;;;14.20;4.20;;;;;;;;;;5075822;28;20108;-70
2021/04/24 06:19:40;;;;;;;11.18;5.57;;;;;;;;;;5057164;28;20423;-69
2021/04/24 06:22:06;;;;;;;8.55;5.10;;;;;;;;;;5057171;28;20193;-69
2021/04/24 06:24:32;;;;;;;13.05;5.47;;;;;;;;;;5074938;28;20077;-69
2021/04/24 06:26:58;;;;;;;11.88;5.25;;;;;;;;;;5074999;28;20070;-69
2021/04/24 06:29:24;;;;;;;9.25;5.40;;;;;;;;;;5057322;28;20546;-70
2021/04/24 06:31:50;;;;;;;10.00;5.00;;;;;;;;;;5056774;28;20032;-67
2021/04/24 06:34:16;;;;;;;10.27;4.63;;;;;;;;;;5075223;28;20082;-65
2021/04/24 06:36:42;;;;;;;7.90;5.65;;;;;;;;;;5074770;28;20025;-67
2021/04/24 06:39:09;;;;;;;9.95;5.38;;;;;;;;;;5074671;28;20021;-67
2021/04/24 06:41:35;;;;;;;9.60;4.82;;;;;;;;;;5074957;28;20020;-67
2021/04/24 06:44:02;;;;;;;12.05;4.15;;;;;;;;;;5074870;28;20020;-68
2021/04/24 06:46:28;;;;;;;13.93;7.25;;;;;;;;;;5074675;28;20028;-68
2021/04/24 06:48:54;;;;;;;8.13;5.85;;;;;;;;;;5075061;28;20027;-66
2021/04/24 06:51:21;;;;;;;7.15;4.40;;;;;;;;;;5074778;28;20025;-67
2021/04/24 06:53:47;;;;;;;11.35;5.65;;;;;;;;;;5074104;28;20099;-66
2021/04/24 06:56:13;;;;;;;6.88;4.45;;;;;;;;;;5056433;28;20032;-67
2021/04/24 06:58:39;;;;;;;15.10;10.68;;;;;;;;;;5074612;28;20024;-67
2021/04/24 07:01:05;;;;;;;71.57;49.70;;;;;;;;;;5073942;28;20021;-68
2021/04/24 07:03:31;;;;;;;15.63;8.85;;;;;;;;;;5056889;28;20111;-68
2021/04/24 07:05:58;;;;;;;12.88;5.05;;;;;;;;;;5056582;28;20490;-67
2021/04/24 07:08:24;;;;;;;12.23;3.97;;;;;;;;;;5074159;28;20021;-68
2021/04/24 07:10:51;;;;;;;8.57;4.17;;;;;;;;;;5074048;28;20490;-69
2021/04/24 07:13:17;;;;;;;4.60;2.70;;;;;;;;;;5074304;28;20281;-67
2021/04/24 07:15:43;;;;;;;5.40;3.58;;;;;;;;;;5073722;28;20473;-67
2021/04/24 07:18:09;;;;;;;9.25;4.63;;;;;;;;;;5056313;28;20376;-67
2021/04/24 07:20:35;;;;;;;25.05;17.20;;;;;;;;;;5073607;28;20021;-67
2021/04/24 07:23:02;;;;;;;75.80;52.65;;;;;;;;;;5074334;28;20079;-68
2021/04/24 07:25:28;;;;;;;17.77;10.43;;;;;;;;;;5056212;28;20516;-67
2021/04/24 07:27:54;;;;;;;8.02;5.95;;;;;;;;;;5073765;28;20048;-69
2021/04/24 07:30:21;;;;;;;5.32;3.70;;;;;;;;;;5054433;28;20036;-66
2021/04/24 07:32:47;;;;;;;6.80;3.73;;;;;;;;;;5071749;28;20060;-69
2021/04/24 07:35:14;;;;;;;8.32;3.85;;;;;;;;;;5071281;28;20028;-69
2021/04/24 07:37:40;;;;;;;7.97;4.13;;;;;;;;;;5074130;28;20016;-69
2021/04/24 07:40:06;;;;;;;6.85;3.08;;;;;;;;;;5092514;28;20023;-67
2021/04/24 07:42:33;;;;;;;6.15;3.85;;;;;;;;;;5073754;28;20111;-65
2021/04/24 07:44:59;;;;;;;7.03;2.92;;;;;;;;;;5087308;28;20025;-70
2021/04/24 07:47:25;;;;;;;8.38;4.88;;;;;;;;;;5072003;28;20469;-69
2021/04/24 07:49:52;;;;;;;8.40;3.33;;;;;;;;;;5072138;28;20032;-73
2021/04/24 07:52:20;;;;;;;7.75;3.65;;;;;;;;;;5072359;28;20109;-70
2021/04/24 07:54:46;;;;;;;;;;;;;;;;;;5055036;28;20025;-69
2021/04/24 07:57:13;;;;;;;6.97;3.40;;;;;;;;;;5071826;28;19904;-70
2021/04/24 07:59:39;;;;;;;6.57;3.80;;;;;;;;;;5072142;28;20017;-69
2021/04/24 08:02:05;;;;;;;7.70;4.07;;;;;;;;;;5072480;28;20031;-69
2021/04/24 08:04:31;;;;;;;8.25;4.38;;;;;;;;;;5071456;28;20021;-71
2021/04/24 08:06:58;;;;;;;7.60;4.03;;;;;;;;;;5072511;28;20024;-69
2021/04/24 08:09:26;;;;;;;9.52;4.35;;;;;;;;;;5072128;28;20100;-70
2021/04/24 08:11:52;;;;;;;7.72;4.15;;;;;;;;;;5071221;28;20057;-70
2021/04/24 08:14:18;;;;;;;7.80;3.05;;;;;;;;;;5072742;28;20024;-71
2021/04/24 08:16:44;;;;;;;5.95;2.83;;;;;;;;;;5072259;28;20642;-70
2021/04/24 08:19:10;;;;;;;8.35;3.42;;;;;;;;;;5072288;28;20031;-71
2021/04/24 08:21:39;;;;;;;6.18;4.53;;;;;;;;;;5072653;28;20044;-71
2021/04/24 08:24:05;;;;;;;7.10;4.35;;;;;;;;;;5072427;28;20024;-70
2021/04/24 08:26:32;;;;;;;7.05;4.15;;;;;;;;;;5072276;28;20020;-71
2021/04/24 08:28:58;;;;;;;7.43;3.67;;;;;;;;;;5054966;28;20440;-70
2021/04/24 08:31:25;;;;;;;10.35;5.20;;;;;;;;;;5053122;28;20074;-71
2021/04/24 08:33:51;;;;;;;3.63;3.00;;;;;;;;;;5052337;28;20450;-72
2021/04/24 08:36:18;;;;;;;4.90;3.28;;;;;;;;;;5054482;28;20027;-68
2021/04/24 08:38:44;;;;;;;10.80;6.43;;;;;;;;;;5072023;28;20032;-69
2021/04/24 08:41:10;;;;;;;9.80;5.85;;;;;;;;;;5071712;28;20027;-64
2021/04/24 08:43:37;;;;;;;6.13;4.50;;;;;;;;;;5072607;28;20483;-67
2021/04/24 08:46:04;;;;;;;10.10;3.97;;;;;;;;;;5072621;28;20029;-66
2021/04/24 08:48:30;;;;;;;5.82;3.70;;;;;;;;;;5072068;28;20024;-66
2021/04/24 08:50:56;;;;;;;5.93;4.07;;;;;;;;;;5085470;28;20735;-64
2021/04/24 08:53:22;;;;;;;5.15;3.30;;;;;;;;;;5092324;28;20473;-69
2021/04/24 08:55:49;;;;;;;8.98;4.00;;;;;;;;;;5091595;28;20081;-70
2021/04/24 08:58:16;;;;;;;5.78;3.97;;;;;;;;;;5091969;28;20021;-71
2021/04/24 09:00:43;;;;;;;49.33;8.32;;;;;;;;;;5086265;28;20016;-70
2021/04/24 09:03:09;;;;;;;;;;;;;;;;;;5071687;28;20423;-70
2021/04/24 09:05:36;;;;;;;595.20;62.55;;;;;;;;;;5072035;28;19904;-70
2021/04/24 09:08:03;;;;;;;16.38;4.38;;;;;;;;;;5072285;28;20024;-71
2021/04/24 09:10:35;;;;;;;75.50;8.40;;;;;;;;;;5053388;28;20032;-72
2021/04/24 09:13:01;;;;;;;44.22;6.47;;;;;;;;;;5056861;28;20079;-71
2021/04/24 09:15:28;;;;;;;11.48;4.00;;;;;;;;;;5075964;28;20048;-70
2021/04/24 09:17:56;;;;;;;9.97;3.63;;;;;;;;;;5057171;28;20024;-71
2021/04/24 09:20:24;;;;;;;13.32;3.28;;;;;;;;;;5075805;28;20020;-70
2021/04/24 09:22:54;;;;;;;10.55;4.10;;;;;;;;;;5057634;28;20403;-70
2021/04/24 09:25:20;;;;;;;7.03;3.55;;;;;;;;;;5074904;28;20028;-70
2021/04/24 09:27:47;;;;;;;5.70;3.95;;;;;;;;;;5075213;28;20478;-70
2021/04/24 09:30:40;;;;;;;8.00;3.50;;;;;;;;;;5057719;28;20032;-71
2021/04/24 09:33:09;;;;;;;12.00;4.45;;;;;;;;;;5054059;28;20044;-70
2021/04/24 09:35:55;;;;;;;8.10;2.97;;;;;;;;;;5075047;28;20024;-71
2021/04/24 09:38:26;;;;;;;10.45;4.72;;;;;;;;;;5075461;28;20024;-70
2021/04/24 09:41:10;;;;;;;5.38;3.17;;;;;;;;;;5074896;28;20020;-70
2021/04/24 09:44:07;;;;;;;7.15;4.45;;;;;;;;;;5075563;28;20024;-70
2021/04/24 09:46:45;;;;;;;8.60;4.75;;;;;;;;;;5061947;28;20028;-71
2021/04/24 09:49:11;;;;;;;4.93;3.67;;;;;;;;;;5074048;28;20032;-70
2021/04/24 09:51:39;;;;;;;8.02;3.28;;;;;;;;;;5075281;28;20024;-70
2021/04/24 09:54:05;;;;;;;;;;;;;;;;;;5074756;28;20024;-70
2021/04/24 09:56:31;;;;;;;3.17;2.87;;;;;;;;;;5074907;28;19909;-70
2021/04/24 09:59:04;;;;;;;7.43;4.00;;;;;;;;;;5057214;28;20048;-70
2021/04/24 10:01:31;;;;;;;6.25;3.97;;;;;;;;;;5073920;28;20075;-70
2021/04/24 10:03:58;;;;;;;8.57;3.55;;;;;;;;;;5075026;28;20029;-71
2021/04/24 10:06:26;;;;;;;6.30;4.60;;;;;;;;;;5057064;28;20025;-71
2021/04/24 10:09:08;;;;;;;7.47;4.43;;;;;;;;;;5073832;28;20757;-70
2021/04/24 10:11:34;;;;;;;8.23;5.13;;;;;;;;;;5074771;28;20030;-70
2021/04/24 10:14:00;;;;;;;5.65;3.95;;;;;;;;;;5077170;28;20029;-70
2021/04/24 10:16:33;;;;;;;9.07;3.95;;;;;;;;;;5078216;28;20025;-70
2021/04/24 10:19:01;;;;;;;8.38;4.25;;;;;;;;;;5056692;28;20059;-69
2021/04/24 10:21:29;;;;;;;6.60;4.50;;;;;;;;;;5079572;28;20049;-69
2021/04/24 10:23:55;;;;;;;6.15;3.50;;;;;;;;;;5057984;28;20059;-69
2021/04/24 10:26:21;;;;;;;9.68;4.20;;;;;;;;;;5056494;28;20028;-70
2021/04/24 10:28:48;;;;;;;7.30;3.75;;;;;;;;;;5056846;28;20025;-69
2021/04/24 10:31:14;;;;;;;12.00;10.70;;;;;;;;;;5073734;28;20524;-69
2021/04/24 10:33:40;;;;;;;27.35;19.83;;;;;;;;;;5055975;28;20032;-72
2021/04/24 10:36:08;;;;;;;11.13;5.40;;;;;;;;;;5074555;28;20107;-74
2021/04/24 10:38:34;;;;;;;;;;;;;;;;;;5056382;28;20029;-74
2021/04/24 10:41:00;;;;;;;6.63;4.23;;;;;;;;;;5055747;28;19908;-71
2021/04/24 10:43:27;;;;;;;8.05;3.25;;;;;;;;;;5055369;28;20033;-73
2021/04/24 10:45:53;;;;;;;10.82;3.78;;;;;;;;;;5054285;28;20169;-71
2021/04/24 10:48:23;;;;;;;5.65;3.33;;;;;;;;;;5054875;28;20648;-70
2021/04/24 10:50:50;;;;;;;10.25;5.25;;;;;;;;;;5055139;28;20030;-72
2021/04/24 10:53:22;;;;;;;6.87;3.50;;;;;;;;;;5055002;28;20427;-71
2021/04/24 10:55:49;;;;;;;6.55;3.72;;;;;;;;;;5073110;28;20020;-73
2021/04/24 10:58:23;;;;;;;6.88;3.33;;;;;;;;;;5073855;28;20030;-72
2021/04/24 11:00:58;;;;;;;5.22;3.72;;;;;;;;;;5073368;28;20021;-75
2021/04/24 11:03:37;;;;;;;4.75;3.22;;;;;;;;;;5074025;28;20032;-74
2021/04/24 11:06:07;;;;;;;6.82;2.75;;;;;;;;;;5055755;28;20012;-74
2021/04/24 11:08:34;;;;;;;5.18;2.97;;;;;;;;;;5072415;28;20538;-74
2021/04/24 11:11:07;;;;;;;3.87;3.20;;;;;;;;;;5073455;28;20016;-72
2021/04/24 11:13:35;;;;;;;10.75;3.78;;;;;;;;;;5071531;28;20028;-73
2021/04/24 11:16:02;;;;;;;11.90;4.85;;;;;;;;;;5073365;28;20024;-73
2021/04/24 11:18:29;;;;;;;6.05;4.65;;;;;;;;;;5053383;28;20354;-73
2021/04/24 11:21:02;;;;;;;5.60;3.63;;;;;;;;;;5056165;28;20036;-74
2021/04/24 11:23:35;;;;;;;5.18;3.40;;;;;;;;;;5056267;28;20788;-72
2021/04/24 11:26:03;;;;;;;12.00;4.97;;;;;;;;;;5072733;28;20445;-71
2021/04/24 11:28:29;;;;;;;6.18;3.92;;;;;;;;;;5073599;28;20350;-71
2021/04/24 11:30:58;;;;;;;9.00;3.72;;;;;;;;;;5073304;28;20024;-70
2021/04/24 11:33:34;;;;;;;5.15;3.50;;;;;;;;;;5073991;28;20030;-74
2021/04/24 11:38:56;;;;;;;7.00;3.28;;;;;;;;;;5077463;28;20078;-73
2021/04/24 11:41:35;;;;;;;4.65;2.95;;;;;;;;;;5054482;28;20028;-70
2021/04/24 11:44:17;;;;;;;4.78;3.10;;;;;;;;;;5070291;28;20503;-71
2021/04/24 11:46:44;;;;;;;5.43;3.05;;;;;;;;;;5053131;28;20021;-71
2021/04/24 11:49:12;;;;;;;4.72;3.00;;;;;;;;;;5072423;28;20053;-74
2021/04/24 11:51:38;;;;;;;;;;;;;;;;;;5082022;28;20477;-71
2021/04/24 11:54:04;;;;;;;;;;;;;;;;;;5074072;28;19920;-71
2021/04/24 11:56:31;;;;;;;6.70;4.37;;;;;;;;;;5073591;28;19945;-72
2021/04/24 11:58:57;;;;;;;3.72;2.42;;;;;;;;;;5055601;28;20078;-72
2021/04/24 12:01:24;;;;;;;4.00;3.05;;;;;;;;;;5055606;28;20064;-73
2021/04/24 12:03:51;;;;;;;3.35;2.75;;;;;;;;;;5073747;28;20036;-74
2021/04/24 12:06:33;;;;;;;4.47;2.30;;;;;;;;;;5054991;28;20115;-73
2021/04/24 12:09:00;;;;;;;3.13;2.17;;;;;;;;;;5073752;28;20365;-72
2021/04/24 12:11:26;;;;;;;6.43;3.72;;;;;;;;;;5055113;28;20411;-76
2021/04/24 12:13:53;;;;;;;4.85;3.03;;;;;;;;;;5054011;28;20056;-74
2021/04/24 12:16:19;;;;;;;5.47;4.53;;;;;;;;;;5073401;28;20025;-74
2021/04/24 12:18:45;;;;;;;7.10;3.80;;;;;;;;;;5072874;28;20488;-75
2021/04/24 12:21:11;;;;;;;4.90;2.53;;;;;;;;;;5051883;28;20049;-75
2021/04/24 12:23:37;;;;;;;8.35;3.20;;;;;;;;;;5052663;28;20029;-72
2021/04/24 12:26:03;;;;;;;4.57;2.50;;;;;;;;;;5052994;28;20111;-73
2021/04/24 12:28:30;;;;;;;5.55;3.33;;;;;;;;;;5068716;28;20025;-73
2021/04/24 12:30:57;;;;;;;7.93;2.78;;;;;;;;;;5068963;28;20028;-75
2021/04/24 12:33:23;;;;;;;7.03;2.80;;;;;;;;;;5053165;28;20495;-75
2021/04/24 12:35:54;;;;;;;3.53;3.22;;;;;;;;;;5053772;28;20772;-74
2021/04/24 12:38:24;;;;;;;8.25;3.78;;;;;;;;;;5068812;28;20040;-75
2021/04/24 12:40:51;;;;;;;5.45;2.63;;;;;;;;;;5068511;28;20526;-74
2021/04/24 12:43:22;;;;;;;6.03;2.45;;;;;;;;;;5053357;28;20037;-74
2021/04/24 12:45:49;;;;;;;4.47;3.13;;;;;;;;;;5055082;28;20024;-73
2021/04/24 12:48:16;;;;;;;6.63;2.38;;;;;;;;;;5072385;28;20469;-73
2021/04/24 12:50:44;;;;;;;4.72;2.63;;;;;;;;;;5057235;28;20036;-71
2021/04/24 12:53:11;;;;;;;6.93;2.53;;;;;;;;;;5072164;28;20040;-70
2021/04/24 12:55:41;;;;;;;8.13;2.90;;;;;;;;;;5072533;28;20039;-71
2021/04/24 12:58:09;;;;;;;4.57;3.05;;;;;;;;;;5057072;28;20028;-71
2021/04/24 13:00:39;;;;;;;6.18;2.47;;;;;;;;;;5056814;28;20526;-71
2021/04/24 13:03:24;;;;;;;4.07;2.88;;;;;;;;;;5056979;28;20477;-73
2021/04/24 13:05:50;;;;;;;4.75;2.72;;;;;;;;;;5056930;28;20025;-70
2021/04/24 13:08:17;;;;;;;3.00;2.53;;;;;;;;;;5056909;28;20053;-72
2021/04/24 13:10:43;;;;;;;2.65;2.38;;;;;;;;;;5072248;28;20465;-70
2021/04/24 13:13:18;;;;;;;6.18;2.40;;;;;;;;;;5056998;28;20036;-72
2021/04/24 13:15:44;;;;;;;6.68;1.88;;;;;;;;;;5056582;28;20013;-71
2021/04/24 13:18:23;;;;;;;8.82;2.95;;;;;;;;;;5072905;28;20119;-71
2021/04/24 13:20:49;;;;;;;4.55;3.05;;;;;;;;;;5057117;28;20032;-72
2021/04/24 13:23:16;;;;;;;4.65;2.40;;;;;;;;;;5076391;28;20028;-71
2021/04/24 13:25:42;;;;;;;3.65;2.22;;;;;;;;;;5076540;28;20100;-72
2021/04/24 13:28:08;;;;;;;6.35;2.65;;;;;;;;;;5059085;28;20116;-73
2021/04/24 13:30:44;;;;;;;6.72;3.35;;;;;;;;;;5076221;28;20376;-71
2021/04/24 13:33:12;;;;;;;7.35;3.25;;;;;;;;;;5076288;28;20115;-73
2021/04/24 13:35:47;;;;;;;4.68;3.63;;;;;;;;;;5058275;28;20021;-70
2021/04/24 13:38:18;;;;;;;7.75;3.50;;;;;;;;;;5058423;28;20036;-71
2021/04/24 13:40:44;;;;;;;4.95;3.10;;;;;;;;;;5058393;28;20032;-67
2021/04/24 13:43:11;;;;;;;4.10;2.40;;;;;;;;;;5075687;28;20484;-69
2021/04/24 13:45:37;;;;;;;5.43;2.88;;;;;;;;;;5075959;28;20021;-71
2021/04/24 13:48:09;;;;;;;12.10;4.50;;;;;;;;;;5076134;28;20020;-70
2021/04/24 13:50:36;;;;;;;5.72;3.45;;;;;;;;;;5075930;28;20020;-70
2021/04/24 13:53:04;;;;;;;16.83;4.15;;;;;;;;;;5076030;28;20032;-71
2021/04/24 13:55:30;;;;;;;4.53;2.47;;;;;;;;;;5058016;28;20029;-70
2021/04/24 13:58:09;;;;;;;4.18;2.60;;;;;;;;;;5075015;28;20020;-72
2021/04/24 14:00:36;;;;;;;14.23;6.63;;;;;;;;;;5058065;28;20059;-72
2021/04/24 14:03:03;;;;;;;4.55;2.35;;;;;;;;;;5075606;28;20028;-72
2021/04/24 14:05:29;;;;;;;5.47;2.40;;;;;;;;;;5075840;28;20396;-72
2021/04/24 14:07:55;;;;;;;4.95;2.50;;;;;;;;;;5075881;28;20059;-71
2021/04/24 14:10:22;;;;;;;7.50;2.17;;;;;;;;;;5075689;28;20024;-72
2021/04/24 14:12:48;;;;;;;5.93;3.70;;;;;;;;;;5057699;28;20029;-72
2021/04/24 14:15:18;;;;;;;5.37;2.57;;;;;;;;;;5075814;28;20047;-71
2021/04/24 14:17:44;;;;;;;7.53;2.60;;;;;;;;;;5075484;28;20016;-72
2021/04/24 14:20:11;;;;;;;3.77;2.43;;;;;;;;;;5057657;28;20020;-72
2021/04/24 14:22:37;;;;;;;4.03;2.78;;;;;;;;;;5075236;28;20285;-72
2021/04/24 14:25:04;;;;;;;7.07;2.85;;;;;;;;;;5057254;28;20017;-72
2021/04/24 14:27:30;;;;;;;4.65;2.08;;;;;;;;;;5075117;28;20549;-72
2021/04/24 14:29:56;;;;;;;5.93;2.67;;;;;;;;;;5075386;28;20025;-72
2021/04/24 14:32:23;;;;;;;5.47;2.72;;;;;;;;;;5074999;28;20029;-72
2021/04/24 14:34:49;;;;;;;5.03;3.30;;;;;;;;;;5057662;28;20025;-71
2021/04/24 14:37:15;;;;;;;7.15;2.83;;;;;;;;;;5074890;28;20060;-72